Time;durP1;ratioP1;P1;durP2;ratioP2;P2;SDS_P1;SDS_P2;PMS_P1;PMS_P2;Temp;Humidity;BMP_temperature;BMP_pressure;BME280_temperature;BME280_humidity;BME280_pressure;Samples;Min_cycle;Max_cycle;Signal;HPM_P1;HPM_P2
2023/04/06 00:01:37;;;;;;;;;3.75;3.75;;;;;7.95;66.29;100800.28;5076028;28;45959;-73
2023/04/06 00:04:03;;;;;;;;;4.00;4.00;;;;;7.91;66.79;100801.84;5073325;28;45458;-74
2023/04/06 00:06:29;;;;;;;;;7.00;6.00;;;;;7.88;66.90;100803.44;5076079;28;45439;-74
2023/04/06 00:08:55;;;;;;;;;6.00;6.00;;;;;7.74;66.87;100798.50;5076409;28;45552;-73
2023/04/06 00:11:22;;;;;;;;;6.25;5.50;;;;;7.67;67.47;100796.41;5076769;28;45508;-72
2023/04/06 00:13:47;;;;;;;;;4.75;4.50;;;;;7.63;67.61;100802.31;5076863;28;45501;-72
2023/04/06 00:16:13;;;;;;;;;7.00;6.00;;;;;7.62;67.75;100810.94;5076817;28;45461;-73
2023/04/06 00:18:39;;;;;;;;;6.25;6.25;;;;;7.58;67.49;100793.41;5076898;28;45509;-74
2023/04/06 00:21:05;;;;;;;;;5.00;4.00;;;;;7.57;67.14;100796.81;5076685;28;46259;-74
2023/04/06 00:23:31;;;;;;;;;6.75;6.00;;;;;7.48;66.91;100789.50;5076430;28;45517;-74
2023/04/06 00:25:56;;;;;;;;;7.25;6.00;;;;;7.46;68.01;100782.44;5073703;28;45391;-74
2023/04/06 00:28:25;;;;;;;;;8.00;6.00;;;;;7.50;67.70;100792.16;5076640;28;45505;-74
2023/04/06 00:30:52;;;;;;;;;8.75;8.00;;;;;7.40;68.24;100787.34;5075632;28;45641;-74
2023/04/06 00:33:21;;;;;;;;;6.00;6.00;;;;;7.42;68.07;100793.50;5075566;28;45363;-74
2023/04/06 00:35:47;;;;;;;;;6.50;6.50;;;;;7.39;68.35;100789.06;5065542;27;45555;-74
2023/04/06 00:38:14;;;;;;;;;4.25;4.25;;;;;7.36;68.23;100782.03;5075690;28;45572;-72
2023/04/06 00:40:40;;;;;;;;;6.00;5.00;;;;;7.23;68.43;100756.28;5073156;28;46061;-73
2023/04/06 00:43:07;;;;;;;;;4.25;4.25;;;;;7.31;67.55;100767.91;5075903;28;45303;-72
2023/04/06 00:45:33;;;;;;;;;8.75;8.00;;;;;7.40;68.13;100771.75;5073035;28;45253;-74
2023/04/06 00:47:59;;;;;;;;;6.00;6.00;;;;;7.39;68.63;100767.38;5076483;28;45399;-73
2023/04/06 00:50:25;;;;;;;;;6.25;6.00;;;;;7.42;68.40;100764.91;5075035;28;45355;-74
2023/04/06 00:52:51;;;;;;;;;6.50;6.50;;;;;7.55;67.76;100769.88;5076266;28;45530;-74
2023/04/06 00:55:17;;;;;;;;;6.50;6.50;;;;;7.60;67.72;100764.88;5076034;28;45511;-74
2023/04/06 00:57:43;;;;;;;;;4.50;4.50;;;;;7.65;67.42;100766.84;5075885;28;45477;-74
2023/04/06 01:00:09;;;;;;;;;6.00;5.00;;;;;7.61;67.25;100748.47;5074497;28;45640;-74
2023/04/06 01:02:35;;;;;;;;;6.00;4.00;;;;;7.68;67.61;100753.09;5053790;28;45532;-74
2023/04/06 01:05:01;;;;;;;;;6.75;6.00;;;;;7.71;67.64;100761.94;5057051;28;45317;-74
2023/04/06 01:07:27;;;;;;;;;4.00;4.00;;;;;7.75;67.67;100761.25;5074730;28;45454;-74
2023/04/06 01:09:55;;;;;;;;;6.00;5.50;;;;;7.68;67.21;100738.41;5072337;28;45496;-73
2023/04/06 01:12:21;;;;;;;;;8.25;7.00;;;;;7.70;66.83;100736.78;5072548;28;45421;-72
2023/04/06 01:14:46;;;;;;;;;5.00;3.75;;;;;7.81;67.35;100757.16;5074925;28;45798;-73
2023/04/06 01:17:12;;;;;;;;;4.00;4.00;;;;;7.81;66.88;100736.34;5064841;28;45510;-74
2023/04/06 01:19:40;;;;;;;;;4.00;4.00;;;;;7.91;66.95;100739.41;5073713;28;45487;-72
2023/04/06 01:22:05;;;;;;;;;4.00;4.00;;;;;7.95;66.77;100738.72;5077266;28;45648;-72
2023/04/06 01:24:31;;;;;;;;;6.75;5.00;;;;;7.89;66.84;100721.97;5076986;28;45572;-74
2023/04/06 01:26:57;;;;;;;;;5.00;5.00;;;;;7.93;67.14;100729.94;5076884;28;45503;-69
2023/04/06 01:29:22;;;;;;;;;4.50;3.75;;;;;7.97;66.89;100726.66;5075879;28;45893;-73
2023/04/06 01:31:48;;;;;;;;;4.00;3.25;;;;;8.03;66.83;100722.56;5074759;28;45661;-72
2023/04/06 01:34:14;;;;;;;;;4.00;4.00;;;;;8.05;66.84;100716.59;5049346;28;45492;-70
2023/04/06 01:36:39;;;;;;;;;6.25;4.00;;;;;8.09;66.84;100715.91;5078932;28;45430;-72
2023/04/06 01:39:05;;;;;;;;;6.00;6.00;;;;;8.11;66.75;100698.63;5075618;28;46192;-73
2023/04/06 01:41:31;;;;;;;;;5.00;5.00;;;;;8.15;66.43;100703.13;5077589;28;46156;-72
2023/04/06 01:43:56;;;;;;;;;4.25;3.50;;;;;8.19;66.45;100705.88;5078145;28;45469;-72
2023/04/06 01:46:22;;;;;;;;;6.00;4.00;;;;;8.21;66.35;100702.50;5078567;28;45468;-70
2023/04/06 01:48:47;;;;;;;;;6.00;6.00;;;;;8.20;66.19;100687.75;5061386;28;47981;-69
2023/04/06 01:51:13;;;;;;;;;6.50;6.00;;;;;8.22;66.96;100701.72;5073270;28;45355;-74
2023/04/06 01:53:39;;;;;;;;;6.00;6.00;;;;;8.20;66.98;100692.94;5071511;28;45385;-72
2023/04/06 01:56:05;;;;;;;;;5.50;5.50;;;;;8.04;67.85;100683.59;5085958;28;45572;-73
2023/04/06 01:58:30;;;;;;;;;6.75;6.00;;;;;8.02;67.95;100684.34;5080722;28;45490;-69
2023/04/06 02:00:56;;;;;;;;;5.50;4.50;;;;;7.95;67.21;100671.06;5078604;28;45563;-70
2023/04/06 02:03:22;;;;;;;;;6.75;6.00;;;;;7.96;68.14;100685.88;5076823;28;45433;-73
2023/04/06 02:05:47;;;;;;;;;7.00;6.00;;;;;7.90;67.94;100666.53;5076153;28;45300;-73
2023/04/06 02:08:13;;;;;;;;;6.00;4.50;;;;;7.95;68.31;100678.00;5077496;28;46000;-70
2023/04/06 02:10:38;;;;;;;;;7.00;6.50;;;;;7.94;67.88;100658.91;5075739;28;45652;-74
2023/04/06 02:13:04;;;;;;;;;6.50;6.25;;;;;8.04;67.72;100673.19;5077539;28;45602;-73
2023/04/06 02:15:29;;;;;;;;;8.00;6.25;;;;;8.08;67.47;100669.03;5077968;28;45537;-74
2023/04/06 02:17:55;;;;;;;;;8.50;7.75;;;;;8.12;67.22;100674.41;5070041;28;45232;-70
2023/04/06 02:20:21;;;;;;;;;9.25;7.75;;;;;8.08;67.31;100659.50;5064377;28;45389;-73
2023/04/06 02:22:46;;;;;;;;;8.00;8.00;;;;;8.11;67.62;100663.94;5058386;28;45854;-72
2023/04/06 02:25:12;;;;;;;;;6.50;6.50;;;;;8.13;67.42;100657.94;5054542;28;45543;-73
2023/04/06 02:27:37;;;;;;;;;6.25;6.25;;;;;8.16;67.50;100655.50;5064887;28;45903;-74
2023/04/06 02:30:04;;;;;;;;;6.00;5.50;;;;;8.13;67.48;100644.06;5063809;27;45988;-74
2023/04/06 02:32:30;;;;;;;;;6.00;6.00;;;;;8.29;67.50;100667.28;5074776;28;45579;-73
2023/04/06 02:34:55;;;;;;;;;6.00;6.00;;;;;7.90;67.34;100585.91;5065965;28;45485;-73
2023/04/06 02:37:23;;;;;;;;;7.00;6.25;;;;;8.25;67.27;100648.88;5074268;28;45971;-74
2023/04/06 02:39:48;;;;;;;;;4.50;4.50;;;;;8.28;66.82;100643.81;5075306;28;45660;-74
2023/04/06 02:42:15;;;;;;;;;6.00;4.00;;;;;8.41;66.68;100663.41;5077234;27;45352;-71
2023/04/06 02:44:41;;;;;;;;;6.25;5.50;;;;;8.40;66.72;100672.06;5078237;28;45494;-74
2023/04/06 02:47:07;;;;;;;;;6.25;4.00;;;;;8.28;67.09;100651.63;5077302;28;46173;-74
2023/04/06 02:49:32;;;;;;;;;5.25;3.00;;;;;8.40;67.02;100678.16;5075431;28;45467;-73
2023/04/06 02:51:58;;;;;;;;;7.00;5.75;;;;;8.40;67.64;100682.47;5059360;28;45435;-74
2023/04/06 02:54:23;;;;;;;;;6.50;4.75;;;;;8.27;67.40;100661.13;5077456;28;45417;-74
2023/04/06 02:56:49;;;;;;;;;4.00;4.00;;;;;8.42;67.03;100673.94;5076884;28;46156;-74
2023/04/06 02:59:14;;;;;;;;;8.00;6.25;;;;;8.42;67.12;100679.13;5077232;28;45900;-70
2023/04/06 03:01:40;;;;;;;;;5.00;4.00;;;;;8.43;67.25;100677.41;5075719;28;45555;-74
2023/04/06 03:04:05;;;;;;;;;4.25;4.25;;;;;8.34;66.61;100650.16;5075548;28;45470;-73
2023/04/06 03:06:31;;;;;;;;;7.00;6.75;;;;;8.47;66.42;100661.97;5075494;28;46083;-74
2023/04/06 03:08:57;;;;;;;;;7.00;7.00;;;;;8.38;66.54;100648.56;5076539;28;45310;-74
2023/04/06 03:11:22;;;;;;;;;7.00;5.00;;;;;8.45;67.07;100661.03;5075898;28;45449;-74
2023/04/06 03:13:48;;;;;;;;;3.50;3.25;;;;;8.45;67.30;100662.75;5074746;28;45458;-73
2023/04/06 03:16:13;;;;;;;;;6.00;4.00;;;;;8.29;67.32;100642.97;5077169;28;46137;-73
2023/04/06 03:18:39;;;;;;;;;7.00;7.00;;;;;8.28;67.45;100649.91;5074646;28;45514;-74
2023/04/06 03:21:04;;;;;;;;;8.00;7.50;;;;;8.29;67.55;100656.00;5058159;28;45431;-73
2023/04/06 03:23:30;;;;;;;;;4.50;3.75;;;;;8.16;67.74;100647.69;5076357;28;45576;-74
2023/04/06 03:25:56;;;;;;;;;3.75;3.75;;;;;8.16;68.61;100652.88;5073374;28;45994;-74
2023/04/06 03:28:21;;;;;;;;;7.00;7.00;;;;;8.04;69.19;100647.19;5074473;28;45408;-74
2023/04/06 03:30:47;;;;;;;;;6.50;4.00;;;;;7.94;69.41;100651.09;5073527;28;45379;-74
2023/04/06 03:33:12;;;;;;;;;4.00;3.00;;;;;7.83;69.59;100635.88;5054692;28;45473;-73
2023/04/06 03:35:38;;;;;;;;;5.00;5.00;;;;;7.88;69.94;100636.97;5075361;28;46017;-73
2023/04/06 03:38:04;;;;;;;;;6.00;5.50;;;;;7.84;69.17;100622.03;5064000;28;45421;-73
2023/04/06 03:40:33;;;;;;;;;4.00;3.75;;;;;8.00;69.30;100637.47;5051734;28;45579;-74
2023/04/06 03:42:58;;;;;;;;;6.00;6.00;;;;;8.06;69.24;100629.03;5071761;28;45463;-73
2023/04/06 03:45:24;;;;;;;;;6.50;4.50;;;;;8.10;69.11;100639.63;5075438;28;45458;-74
2023/04/06 03:47:49;;;;;;;;;7.75;5.50;;;;;8.17;68.85;100646.84;5072646;28;45362;-73
2023/04/06 03:50:15;;;;;;;;;8.00;4.50;;;;;8.08;69.06;100617.88;5076180;28;45407;-74
2023/04/06 03:52:40;;;;;;;;;6.00;6.00;;;;;8.11;69.19;100632.72;5076098;28;45459;-73
2023/04/06 03:55:07;;;;;;;;;5.50;4.00;;;;;8.03;69.22;100634.09;5075818;28;46167;-74
2023/04/06 03:57:32;;;;;;;;;6.50;6.00;;;;;8.10;69.96;100641.34;5072125;28;45712;-74
2023/04/06 03:59:58;;;;;;;;;8.00;6.50;;;;;7.97;69.79;100622.59;5075221;28;45395;-74
2023/04/06 04:02:24;;;;;;;;;4.50;4.00;;;;;8.10;69.39;100636.16;5075755;28;45488;-74
2023/04/06 04:04:49;;;;;;;;;7.00;6.00;;;;;8.16;68.92;100641.59;5075444;28;45556;-74
2023/04/06 04:07:15;;;;;;;;;4.50;4.50;;;;;8.19;68.82;100646.91;5074745;28;45393;-74
2023/04/06 04:09:40;;;;;;;;;4.00;4.00;;;;;8.16;68.81;100629.47;5051016;28;45451;-73
2023/04/06 04:12:06;;;;;;;;;6.75;6.50;;;;;8.18;68.51;100624.34;5068660;28;45422;-74
2023/04/06 04:14:32;;;;;;;;;6.75;6.00;;;;;8.38;68.66;100655.50;5075389;28;46151;-74
2023/04/06 04:16:57;;;;;;;;;6.25;6.25;;;;;8.41;68.26;100666.94;5075141;28;45517;-72
2023/04/06 04:19:23;;;;;;;;;10.25;8.50;;;;;8.34;68.18;100655.34;5073002;28;45407;-74
2023/04/06 04:21:48;;;;;;;;;7.25;7.00;;;;;8.32;68.19;100653.53;5074967;28;45632;-74
2023/04/06 04:24:14;;;;;;;;;10.25;8.75;;;;;8.36;68.76;100665.84;5072780;28;46146;-74
2023/04/06 04:26:40;;;;;;;;;6.50;4.25;;;;;8.39;67.87;100667.66;5074866;28;45306;-74
2023/04/06 04:29:06;;;;;;;;;8.50;7.00;;;;;8.40;68.02;100667.75;5056028;28;45712;-74
2023/04/06 04:31:31;;;;;;;;;7.25;6.75;;;;;8.44;67.73;100674.88;5073219;28;45479;-73
2023/04/06 04:33:58;;;;;;;;;6.50;4.75;;;;;8.48;67.75;100686.31;5072405;28;46025;-73
2023/04/06 04:36:25;;;;;;;;;8.50;7.00;;;;;8.50;67.86;100693.34;5075253;28;45440;-74
2023/04/06 04:38:51;;;;;;;;;8.00;8.00;;;;;8.52;67.93;100696.03;5075355;28;45532;-73
2023/04/06 04:41:17;;;;;;;;;6.50;6.50;;;;;8.53;67.77;100695.19;5077048;28;45291;-70
2023/04/06 04:43:42;;;;;;;;;6.75;6.00;;;;;8.52;67.96;100707.31;5054411;28;46722;-74
2023/04/06 04:46:08;;;;;;;;;3.00;3.00;;;;;8.51;68.31;100712.44;5069341;28;45350;-74
2023/04/06 04:48:34;;;;;;;;;7.00;6.00;;;;;8.48;68.19;100715.84;5076039;28;45220;-74
2023/04/06 04:51:00;;;;;;;;;6.25;4.00;;;;;8.41;68.07;100703.38;5076415;28;45284;-74
2023/04/06 04:53:25;;;;;;;;;6.00;6.00;;;;;8.40;67.95;100704.19;5075911;28;45457;-74
2023/04/06 04:55:51;;;;;;;;;8.75;7.00;;;;;8.48;67.62;100728.84;5079437;28;45349;-74
2023/04/06 04:58:18;;;;;;;;;106.67;88.33;;;;;8.49;67.45;100724.53;5079512;28;45461;-71
2023/04/06 05:00:44;;;;;;;;;24.75;22.00;;;;;8.49;67.71;100715.00;5079898;28;45274;-74
2023/04/06 05:03:14;;;;;;;;;21.00;18.25;;;;;8.53;67.23;100722.13;5079654;28;46228;-73
2023/04/06 05:05:40;;;;;;;;;13.25;13.00;;;;;8.54;68.14;100731.69;5079315;28;45447;-70
2023/04/06 05:08:05;;;;;;;;;22.25;21.50;;;;;8.52;67.63;100737.69;5079152;28;45385;-73
2023/04/06 05:10:31;;;;;;;;;8.25;7.75;;;;;8.49;68.12;100741.03;5079682;28;45425;-73
2023/04/06 05:12:57;;;;;;;;;7.00;7.00;;;;;8.47;68.23;100733.97;5079097;28;46116;-74
2023/04/06 05:15:22;;;;;;;;;6.00;6.00;;;;;8.47;68.01;100745.28;5048494;28;45723;-74
2023/04/06 05:17:48;;;;;;;;;4.00;4.00;;;;;8.53;68.29;100755.97;5076795;28;45454;-73
2023/04/06 05:20:14;;;;;;;;;7.00;6.00;;;;;8.48;68.17;100751.41;5079626;28;45220;-73
2023/04/06 05:22:40;;;;;;;;;7.00;6.00;;;;;8.50;68.15;100752.34;5060997;28;45854;-72
2023/04/06 05:25:05;;;;;;;;;7.50;6.75;;;;;8.52;68.06;100753.31;5079335;28;45518;-74
2023/04/06 05:27:31;;;;;;;;;6.00;5.00;;;;;8.58;68.39;100757.88;5079052;28;45315;-74
2023/04/06 05:29:57;;;;;;;;;9.50;6.75;;;;;8.64;68.35;100763.34;5079423;28;45367;-73
2023/04/06 05:32:24;;;;;;;;;7.25;7.25;;;;;8.63;68.36;100770.25;5078216;28;45636;-74
2023/04/06 05:34:50;;;;;;;;;6.75;6.00;;;;;8.70;68.55;100781.81;5079386;28;45570;-74
2023/04/06 05:37:16;;;;;;;;;6.00;6.00;;;;;8.72;68.07;100774.97;5078929;28;45468;-74
2023/04/06 05:39:42;;;;;;;;;11.75;11.25;;;;;8.69;68.17;100793.03;5079422;28;45393;-73
2023/04/06 05:42:07;;;;;;;;;9.25;9.25;;;;;8.63;67.96;100791.06;5077862;28;45427;-73
2023/04/06 05:44:33;;;;;;;;;14.25;13.00;;;;;8.61;67.66;100795.31;5078399;28;45493;-74
2023/04/06 05:46:59;;;;;;;;;17.25;15.25;;;;;8.70;67.52;100800.06;5077543;28;45382;-73
2023/04/06 05:49:24;;;;;;;;;41.75;33.50;;;;;8.72;67.56;100798.41;5078676;28;45461;-74
2023/04/06 05:51:50;;;;;;;;;40.75;32.75;;;;;8.63;67.86;100779.78;5070361;28;45875;-73
2023/04/06 05:54:16;;;;;;;;;54.00;43.00;;;;;8.65;67.93;100796.34;5078126;28;45648;-74
2023/04/06 05:56:42;;;;;;;;;12.75;12.75;;;;;8.62;68.19;100797.13;5078374;28;45602;-73
2023/04/06 05:59:07;;;;;;;;;25.25;21.25;;;;;8.67;67.81;100792.09;5075773;28;45817;-74
2023/04/06 06:01:34;;;;;;;;;29.25;26.75;;;;;8.71;67.63;100783.59;5077830;28;45402;-74
2023/04/06 06:04:03;;;;;;;;;66.25;51.50;;;;;8.73;67.95;100785.44;5058865;28;45500;-73
2023/04/06 06:06:30;;;;;;;;;26.00;22.75;;;;;8.68;68.26;100783.47;5077364;28;45455;-71
2023/04/06 06:09:00;;;;;;;;;34.00;28.75;;;;;8.76;68.15;100792.50;5077989;28;45418;-73
2023/04/06 06:11:26;;;;;;;;;68.00;55.00;;;;;8.63;68.95;100783.25;5074241;28;46094;-69
2023/04/06 06:13:52;;;;;;;;;30.50;28.50;;;;;8.59;68.88;100775.28;5058489;28;45639;-72
2023/04/06 06:16:18;;;;;;;;;13.25;13.00;;;;;8.63;68.82;100787.59;5077491;28;45468;-69
2023/04/06 06:18:44;;;;;;;;;20.00;20.00;;;;;8.55;68.70;100787.25;5073490;28;45558;-72
2023/04/06 06:21:11;;;;;;;;;24.50;20.75;;;;;8.40;69.91;100790.09;5076178;28;45679;-74
2023/04/06 06:23:37;;;;;;;;;20.00;17.00;;;;;8.17;70.01;100761.34;5077443;28;45379;-71
2023/04/06 06:26:02;;;;;;;;;15.00;14.00;;;;;8.28;70.09;100784.38;5077618;28;45489;-73
2023/04/06 06:28:28;;;;;;;;;8.25;8.25;;;;;8.32;70.03;100781.06;5077790;27;45476;-69
2023/04/06 06:30:54;;;;;;;;;7.50;7.50;;;;;8.38;69.61;100775.25;5077232;28;45963;-70
2023/04/06 06:33:19;;;;;;;;;8.25;8.00;;;;;8.56;68.95;100786.44;5068721;28;45329;-69
2023/04/06 06:35:45;;;;;;;;;9.00;8.00;;;;;8.73;68.87;100794.94;5077357;28;45359;-73
2023/04/06 06:38:10;;;;;;;;;7.50;7.25;;;;;9.03;68.22;100794.41;5077691;28;45473;-74
2023/04/06 06:40:36;;;;;;;;;16.50;14.75;;;;;9.14;67.59;100787.94;5074829;28;45699;-74
2023/04/06 06:43:02;;;;;;;;;8.50;8.00;;;;;9.28;67.08;100785.88;5067413;28;45571;-73
2023/04/06 06:45:29;;;;;;;;;12.00;10.00;;;;;9.36;66.66;100790.53;5068004;28;45410;-72
2023/04/06 06:47:54;;;;;;;;;10.75;10.25;;;;;9.38;66.18;100781.91;5067658;28;45762;-73
2023/04/06 06:50:20;;;;;;;;;10.75;10.00;;;;;9.21;66.32;100757.78;5077204;28;45521;-72
2023/04/06 06:52:46;;;;;;;;;15.00;12.25;;;;;11.51;63.03;100785.72;5067205;28;45594;-74
2023/04/06 06:55:11;;;;;;;;;19.25;19.25;;;;;14.41;56.13;100777.84;5078003;28;45454;-73
2023/04/06 06:57:38;;;;;;;;;16.25;15.75;;;;;16.42;48.47;100770.16;5078047;28;45322;-72
2023/04/06 07:00:05;;;;;;;;;13.25;12.00;;;;;17.78;44.70;100779.03;5075696;28;45310;-72
2023/04/06 07:02:31;;;;;;;;;9.00;8.00;;;;;18.88;44.09;100758.16;5076330;28;45560;-74
2023/04/06 07:04:56;;;;;;;;;9.00;9.00;;;;;19.94;40.55;100767.59;5077498;28;45662;-74
2023/04/06 07:07:22;;;;;;;;;9.75;8.25;;;;;20.90;38.20;100756.31;5059461;28;45486;-74
2023/04/06 07:09:48;;;;;;;;;15.00;14.25;;;;;21.63;35.92;100776.84;5076943;28;45553;-74
2023/04/06 07:12:13;;;;;;;;;18.75;17.50;;;;;22.04;35.33;100759.47;5077225;28;45585;-76
2023/04/06 07:14:39;;;;;;;;;16.00;15.00;;;;;22.55;34.78;100772.03;5052351;28;45485;-74
2023/04/06 07:17:04;;;;;;;;;8.00;8.00;;;;;22.95;33.74;100770.50;5069979;28;45891;-73
2023/04/06 07:19:30;;;;;;;;;6.33;6.00;;;;;23.74;33.96;100769.91;5076723;28;46246;-73
2023/04/06 07:21:56;;;;;;;;;7.67;6.67;;;;;24.53;31.41;100779.75;5075735;27;45384;-71
2023/04/06 07:24:21;;;;;;;;;9.67;8.00;;;;;24.77;31.25;100779.19;5064489;28;45515;-75
2023/04/06 07:26:47;;;;;;;;;8.33;6.33;;;;;25.22;30.90;100783.38;5073929;28;45475;-74
2023/04/06 07:29:12;;;;;;;;;8.00;7.00;;;;;25.56;30.22;100783.31;5076829;28;46193;-73
2023/04/06 07:31:38;;;;;;;;;6.00;6.00;;;;;26.13;29.13;100802.22;5075612;27;45570;-75
2023/04/06 07:34:04;;;;;;;;;6.00;6.00;;;;;26.64;28.89;100798.88;5076546;28;45402;-75
2023/04/06 07:36:29;;;;;;;;;6.00;6.00;;;;;26.93;27.76;100795.19;5076444;28;45439;-75
2023/04/06 07:38:55;;;;;;;;;6.00;5.00;;;;;27.58;27.91;100804.56;5077214;28;45456;-75
2023/04/06 07:41:21;;;;;;;;;5.67;5.67;;;;;27.99;25.99;100801.28;5077172;28;45512;-75
2023/04/06 07:43:46;;;;;;;;;7.00;7.00;;;;;28.56;25.93;100801.75;5077314;28;45498;-76
2023/04/06 07:46:12;;;;;;;;;6.00;6.00;;;;;28.81;25.20;100808.78;5076801;28;45558;-76
2023/04/06 07:48:37;;;;;;;;;14.00;13.67;;;;;28.76;24.98;100800.94;5070118;28;46260;-75
2023/04/06 07:51:04;;;;;;;;;7.67;7.33;;;;;29.36;26.69;100795.69;5055274;28;45501;-74
2023/04/06 07:53:30;;;;;;;;;7.00;6.33;;;;;29.94;25.71;100779.63;5047745;28;45294;-75
2023/04/06 07:55:57;;;;;;;;;8.00;7.00;;;;;30.60;24.47;100780.97;5077343;28;45372;-76
2023/04/06 07:58:23;;;;;;;;;6.00;6.00;;;;;30.83;24.18;100777.09;5076377;27;46081;-75
2023/04/06 08:00:49;;;;;;;;;9.67;8.67;;;;;31.15;25.21;100787.22;5076581;28;45330;-74
2023/04/06 08:03:16;;;;;;;;;10.33;9.33;;;;;31.24;23.39;100786.75;5076830;28;45528;-75
2023/04/06 08:05:41;;;;;;;;;18.67;17.33;;;;;31.30;23.41;100784.56;5076862;28;45646;-75
2023/04/06 08:08:08;;;;;;;;;14.00;12.67;;;;;31.23;23.44;100790.38;5074680;28;45535;-76
2023/04/06 08:10:34;;;;;;;;;11.00;9.33;;;;;31.27;23.08;100789.25;5076440;28;45366;-75
2023/04/06 08:13:00;;;;;;;;;12.00;11.33;;;;;31.64;22.51;100788.19;5076120;27;45398;-74
2023/04/06 08:15:26;;;;;;;;;12.67;11.33;;;;;31.52;22.55;100784.34;5055510;28;45518;-72
2023/04/06 08:17:52;;;;;;;;;5.67;5.33;;;;;31.76;22.26;100794.75;5076658;28;45477;-73
2023/04/06 08:20:17;;;;;;;;;8.33;7.33;;;;;31.53;22.12;100796.00;5076369;28;45619;-71
2023/04/06 08:22:43;;;;;;;;;4.67;4.67;;;;;31.55;22.14;100794.09;5076218;28;45592;-75
2023/04/06 08:25:08;;;;;;;;;3.00;3.00;;;;;32.16;22.70;100795.28;5076375;28;45526;-71
2023/04/06 08:27:34;;;;;;;;;5.67;5.67;;;;;32.55;23.31;100791.28;5076293;28;45410;-75
2023/04/06 08:30:00;;;;;;;;;3.67;3.33;;;;;33.13;21.79;100786.97;5054672;28;45637;-73
2023/04/06 08:32:25;;;;;;;;;7.33;7.33;;;;;32.90;22.09;100786.47;5069624;28;45338;-74
2023/04/06 08:34:54;;;;;;;;;6.33;5.67;;;;;33.27;20.79;100787.00;5075862;28;45468;-76
2023/04/06 08:37:21;;;;;;;;;5.00;3.00;;;;;32.94;22.19;100798.00;5076145;28;46045;-76
2023/04/06 08:39:47;;;;;;;;;3.33;3.33;;;;;32.61;21.77;100799.03;5076032;28;45334;-75
2023/04/06 08:42:19;;;;;;;;;4.00;3.33;;;;;32.24;22.54;100795.72;5076209;28;45433;-76
2023/04/06 08:44:45;;;;;;;;;4.67;3.67;;;;;32.13;22.82;100786.47;5075853;28;45453;-76
2023/04/06 08:47:12;;;;;;;;;5.33;5.33;;;;;31.95;22.96;100788.34;5075383;28;45535;-76
2023/04/06 08:49:38;;;;;;;;;4.00;3.67;;;;;31.37;22.44;100805.84;5074724;28;45566;-74
2023/04/06 08:52:07;;;;;;;;;4.33;4.33;;;;;31.03;23.11;100800.38;5076110;28;45284;-74
2023/04/06 08:54:34;;;;;;;;;5.33;4.33;;;;;31.14;23.23;100799.84;5075648;28;45409;-76
2023/04/06 08:57:00;;;;;;;;;3.00;3.00;;;;;31.39;24.33;100794.00;5075806;28;45634;-73
2023/04/06 08:59:27;;;;;;;;;2.00;2.00;;;;;32.15;22.96;100784.53;5075433;28;45448;-74
2023/04/06 09:01:55;;;;;;;;;7.00;6.33;;;;;31.92;22.92;100789.38;5075902;28;45244;-74
2023/04/06 09:04:21;;;;;;;;;3.00;3.00;;;;;31.80;23.59;100785.53;5074791;28;46138;-76
2023/04/06 09:06:46;;;;;;;;;7.00;6.67;;;;;32.30;22.83;100784.53;5075875;28;45642;-74
2023/04/06 09:09:12;;;;;;;;;0.00;0.00;;;;;32.59;23.91;100783.84;5041652;28;45445;-74
2023/04/06 09:11:46;;;;;;;;;3.00;3.00;;;;;33.14;21.75;100780.59;5067413;28;45382;-76
2023/04/06 09:14:12;;;;;;;;;4.00;3.00;;;;;33.59;21.18;100781.41;5075677;28;45589;-74
2023/04/06 09:16:44;;;;;;;;;2.00;2.00;;;;;33.75;21.09;100786.78;5075647;28;45437;-75
2023/04/06 09:19:10;;;;;;;;;3.33;3.00;;;;;33.52;21.14;100781.91;5076294;28;45379;-76
2023/04/06 09:21:36;;;;;;;;;3.67;3.67;;;;;32.62;22.03;100781.84;5076381;28;45381;-76
2023/04/06 09:24:03;;;;;;;;;4.00;4.00;;;;;32.47;22.30;100770.06;5075811;28;45845;-72
2023/04/06 09:26:29;;;;;;;;;3.67;3.00;;;;;32.84;22.58;100776.03;5075851;28;46206;-75
2023/04/06 09:28:56;;;;;;;;;2.33;2.33;;;;;32.60;22.17;100769.38;5075378;28;45501;-73
2023/04/06 09:31:27;;;;;;;;;3.00;2.67;;;;;32.95;22.55;100774.50;5074660;28;45532;-76
2023/04/06 09:33:53;;;;;;;;;4.00;4.00;;;;;33.27;22.36;100778.88;5074968;28;45513;-76
2023/04/06 09:36:19;;;;;;;;;4.00;4.00;;;;;32.86;22.00;100765.97;5075048;28;45426;-72
2023/04/06 09:38:53;;;;;;;;;3.67;3.67;;;;;32.79;23.18;100775.44;5074118;28;45494;-75
2023/04/06 09:41:25;;;;;;;;;6.67;5.67;;;;;32.68;21.76;100767.94;5061685;28;45627;-76
2023/04/06 09:44:13;;;;;;;;;3.67;3.00;;;;;32.58;22.67;100782.13;5073232;28;45394;-76
2023/04/06 09:46:40;;;;;;;;;6.00;5.00;;;;;32.69;22.33;100774.25;5058322;28;45441;-76
2023/04/06 09:49:08;;;;;;;;;4.67;3.67;;;;;32.09;22.29;100780.34;5069629;28;45381;-75
2023/04/06 09:51:39;;;;;;;;;3.33;3.33;;;;;31.40;22.40;100766.06;5062783;28;45587;-72
2023/04/06 09:54:06;;;;;;;;;6.33;4.67;;;;;30.69;23.91;100783.19;5062837;28;45443;-73
2023/04/06 09:56:42;;;;;;;;;4.00;3.00;;;;;31.01;24.20;100785.22;5078279;28;46109;-76
2023/04/06 09:59:13;;;;;;;;;3.67;3.67;;;;;30.20;25.07;100784.69;5078011;28;45443;-76
2023/04/06 10:01:39;;;;;;;;;4.00;4.00;;;;;30.32;25.27;100782.31;5077137;28;45429;-76
2023/04/06 10:04:19;;;;;;;;;3.00;3.00;;;;;30.30;24.65;100767.13;5077952;27;45449;-73
2023/04/06 10:06:51;;;;;;;;;4.33;4.00;;;;;30.28;25.21;100769.03;5077613;28;45470;-75
2023/04/06 10:09:18;;;;;;;;;4.00;3.00;;;;;30.43;24.92;100764.75;5077319;28;45402;-73
2023/04/06 10:11:44;;;;;;;;;3.67;3.67;;;;;30.90;24.66;100772.31;5077471;27;45437;-76
2023/04/06 10:14:11;;;;;;;;;4.00;4.00;;;;;31.15;24.42;100771.88;5076964;27;45426;-76
2023/04/06 10:16:37;;;;;;;;;4.67;4.67;;;;;30.99;24.24;100760.16;5077770;28;45409;-76
2023/04/06 10:19:16;;;;;;;;;5.00;4.67;;;;;30.68;24.32;100778.75;5077875;28;45350;-76
2023/04/06 10:21:48;;;;;;;;;4.00;4.00;;;;;30.43;24.86;100778.22;5077335;28;45508;-74
2023/04/06 10:24:13;;;;;;;;;5.67;4.67;;;;;30.49;23.78;100778.78;5056346;28;45501;-76
2023/04/06 10:26:39;;;;;;;;;4.00;4.00;;;;;30.37;24.16;100773.13;5051189;28;47629;-76
2023/04/06 10:29:06;;;;;;;;;6.00;6.00;;;;;30.03;25.02;100780.13;5078051;28;45417;-76
2023/04/06 10:31:33;;;;;;;;;6.00;5.00;;;;;30.06;24.63;100772.78;5060477;28;45320;-76
2023/04/06 10:34:01;;;;;;;;;4.67;4.67;;;;;29.77;23.83;100765.19;5058066;28;45440;-75
2023/04/06 10:36:31;;;;;;;;;3.00;3.00;;;;;29.83;23.49;100763.06;5069368;28;46062;-76
2023/04/06 10:39:02;;;;;;;;;3.33;3.33;;;;;29.82;24.73;100755.94;5076564;28;45459;-74
2023/04/06 10:41:46;;;;;;;;;4.00;3.67;;;;;29.89;24.74;100753.84;5077987;28;45209;-75
2023/04/06 10:44:22;;;;;;;;;5.00;5.00;;;;;29.57;24.20;100752.63;5077552;28;45368;-75
2023/04/06 10:47:01;;;;;;;;;6.33;6.33;;;;;29.22;23.93;100761.31;5076711;28;45596;-76
2023/04/06 10:49:26;;;;;;;;;5.00;4.00;;;;;29.01;24.59;100763.13;5077082;28;45474;-75
2023/04/06 10:51:55;;;;;;;;;3.67;2.67;;;;;28.87;24.81;100762.81;5056356;28;45489;-76
2023/04/06 10:54:24;;;;;;;;;3.33;3.33;;;;;28.65;25.54;100761.06;5073081;28;45350;-71
2023/04/06 10:56:50;;;;;;;;;4.33;4.33;;;;;28.75;25.31;100764.25;5058646;28;46646;-71
2023/04/06 10:59:21;;;;;;;;;4.00;4.00;;;;;28.59;25.82;100758.66;5076995;28;45450;-70
2023/04/06 11:01:47;;;;;;;;;4.00;4.00;;;;;27.94;26.26;100755.81;5077641;28;45366;-74
2023/04/06 11:04:17;;;;;;;;;5.67;4.33;;;;;27.74;26.46;100744.94;5059667;28;45500;-76
2023/04/06 11:06:48;;;;;;;;;8.00;6.00;;;;;27.14;27.35;100739.09;5077758;28;45775;-75
2023/04/06 11:09:27;;;;;;;;;4.00;4.00;;;;;26.65;29.13;100749.69;5077384;27;45347;-76
2023/04/06 11:11:53;;;;;;;;;4.67;4.67;;;;;26.25;28.83;100744.75;5077232;28;45407;-74
2023/04/06 11:14:19;;;;;;;;;5.33;5.33;;;;;26.11;28.40;100747.84;5075650;28;45616;-74
2023/04/06 11:16:50;;;;;;;;;6.00;5.00;;;;;26.16;28.18;100743.22;5072061;28;45409;-75
2023/04/06 11:19:16;;;;;;;;;4.67;4.67;;;;;26.10;28.64;100732.69;5076745;28;45430;-76
2023/04/06 11:21:47;;;;;;;;;4.67;4.67;;;;;26.07;29.41;100743.53;5075600;28;45550;-75
2023/04/06 11:24:19;;;;;;;;;4.33;4.00;;;;;25.66;29.14;100748.28;5076457;28;45498;-75